createdAt,value
2019-03-15T00:02:07.276Z,97453.38
2019-03-15T00:04:40.063Z,97457.59
2019-03-15T00:07:10.211Z,97465.84
2019-03-15T00:09:40.776Z,97473.47
2019-03-15T00:12:11.382Z,97479.95
2019-03-15T00:14:42.002Z,97472.98
2019-03-15T00:17:12.573Z,97483.16
2019-03-15T00:19:43.216Z,97488.00
2019-03-15T00:22:13.716Z,97478.92
2019-03-15T00:24:44.819Z,97475.02
2019-03-15T00:27:15.446Z,97466.56
2019-03-15T00:29:46.035Z,97469.33
2019-03-15T00:32:16.904Z,97473.98
2019-03-15T00:34:47.508Z,97475.45
2019-03-15T00:37:18.092Z,97478.06
2019-03-15T00:39:49.716Z,97473.97
2019-03-15T00:42:20.264Z,97482.88
2019-03-15T00:44:50.860Z,97486.56
2019-03-15T00:47:26.013Z,97484.44
2019-03-15T00:49:56.663Z,97488.47
2019-03-15T00:52:27.248Z,97486.53
2019-03-15T00:54:57.855Z,97500.48
2019-03-15T00:57:28.432Z,97491.86
2019-03-15T00:59:59.097Z,97487.81
2019-03-15T01:02:29.685Z,97488.14
2019-03-15T01:05:00.423Z,97492.98
2019-03-15T01:07:31.031Z,97492.34
2019-03-15T01:10:01.607Z,97482.09
2019-03-15T01:12:32.133Z,97484.83
2019-03-15T01:15:02.792Z,97491.16
2019-03-15T01:17:33.318Z,97482.08
2019-03-15T01:20:04.030Z,97480.59
2019-03-15T01:22:36.264Z,97482.23
2019-03-15T01:25:07.021Z,97484.55
2019-03-15T01:27:37.639Z,97485.54
2019-03-15T01:30:08.739Z,97486.84
2019-03-15T01:32:40.429Z,97489.62
2019-03-15T01:35:10.982Z,97496.23
2019-03-15T01:37:44.391Z,97492.36
2019-03-15T01:40:14.931Z,97489.30
2019-03-15T01:42:45.499Z,97482.33
2019-03-15T01:45:18.004Z,97483.14
2019-03-15T01:47:48.499Z,97481.70
2019-03-15T01:50:19.074Z,97473.41
2019-03-15T01:52:49.620Z,97469.70
2019-03-15T01:55:20.251Z,97472.78
2019-03-15T01:57:50.791Z,97466.45
2019-03-15T02:00:21.462Z,97480.72
2019-03-15T02:02:52.018Z,97471.64
2019-03-15T02:05:22.605Z,97479.75
2019-03-15T02:07:53.206Z,97472.30
2019-03-15T02:10:25.581Z,97477.16
2019-03-15T02:12:56.151Z,97476.81
2019-03-15T02:15:26.711Z,97480.36
2019-03-15T02:17:57.295Z,97478.23
2019-03-15T02:20:27.895Z,97476.77
2019-03-15T02:22:58.572Z,97472.57
2019-03-15T02:25:29.137Z,97458.44
2019-03-15T02:28:00.754Z,97458.44
2019-03-15T02:30:31.381Z,97467.03
2019-03-15T02:33:01.933Z,97464.74
2019-03-15T02:35:32.563Z,97454.50
2019-03-15T02:38:03.147Z,97448.15
2019-03-15T02:40:33.691Z,97449.09
2019-03-15T02:43:04.244Z,97450.39
2019-03-15T02:45:34.858Z,97456.40
2019-03-15T02:48:05.406Z,97452.67
2019-03-15T02:50:36.015Z,97450.53
2019-03-15T02:53:06.636Z,97443.38
2019-03-15T02:55:37.222Z,97448.41
2019-03-15T02:58:07.797Z,97440.27
2019-03-15T03:00:41.167Z,97448.05
2019-03-15T03:03:11.940Z,97450.63
2019-03-15T03:05:42.502Z,97452.22
2019-03-15T03:08:14.596Z,97453.35
2019-03-15T03:10:45.184Z,97459.65
2019-03-15T03:13:15.755Z,97451.51
2019-03-15T03:15:46.353Z,97450.38
2019-03-15T03:18:16.916Z,97449.89
2019-03-15T03:20:48.268Z,97450.34
2019-03-15T03:23:19.065Z,97451.12
2019-03-15T03:25:49.667Z,97442.69
2019-03-15T03:28:20.258Z,97447.88
2019-03-15T03:30:50.852Z,97456.13
2019-03-15T03:33:21.389Z,97443.28
2019-03-15T03:35:51.975Z,97450.91
2019-03-15T03:38:22.573Z,97436.79
2019-03-15T03:40:53.201Z,97439.35
2019-03-15T03:43:23.709Z,97438.05
2019-03-15T03:45:54.350Z,97440.78
2019-03-15T03:48:24.978Z,97447.11
2019-03-15T03:50:55.597Z,97445.78
2019-03-15T03:53:26.118Z,97449.48
2019-03-15T03:55:56.696Z,97443.13
2019-03-15T03:58:27.248Z,97441.50
2019-03-15T04:00:57.827Z,97433.02
2019-03-15T04:03:28.357Z,97434.64
2019-03-15T04:05:58.927Z,97421.78
2019-03-15T04:08:29.464Z,97429.70
2019-03-15T04:11:00.065Z,97429.54
2019-03-15T04:13:30.609Z,97428.05
2019-03-15T04:16:01.282Z,97424.47
2019-03-15T04:18:31.868Z,97423.17
2019-03-15T04:21:02.512Z,97428.50
2019-03-15T04:23:33.019Z,97423.14
2019-03-15T04:26:03.712Z,97424.56
2019-03-15T04:28:35.876Z,97429.89
2019-03-15T04:31:06.458Z,97429.23
2019-03-15T04:33:37.003Z,97423.35
2019-03-15T04:36:07.579Z,97421.08
2019-03-15T04:38:38.200Z,97420.59
2019-03-15T04:41:08.793Z,97419.78
2019-03-15T04:43:39.307Z,97419.78
2019-03-15T04:46:09.999Z,97419.45
2019-03-15T04:48:40.549Z,97415.88
2019-03-15T04:51:11.157Z,97414.91
2019-03-15T04:53:41.732Z,97413.11
2019-03-15T04:56:12.355Z,97406.42
2019-03-15T04:58:42.883Z,97408.85
2019-03-15T05:01:13.512Z,97407.36
2019-03-15T05:03:46.077Z,97407.00
2019-03-15T05:06:16.701Z,97405.53
2019-03-15T05:08:47.274Z,97395.63
2019-03-15T05:11:18.971Z,97396.27
2019-03-15T05:13:49.558Z,97398.79
2019-03-15T05:16:21.293Z,97399.80
2019-03-15T05:18:51.811Z,97404.51
2019-03-15T05:21:22.393Z,97402.40
2019-03-15T05:23:52.973Z,97396.52
2019-03-15T05:26:23.598Z,97396.84
2019-03-15T05:28:54.188Z,97390.22
2019-03-15T05:31:24.803Z,97391.92
2019-03-15T05:33:58.437Z,97388.55
2019-03-15T05:36:29.093Z,97388.03
2019-03-15T05:38:59.654Z,97386.44
2019-03-15T05:41:30.343Z,97393.91
2019-03-15T05:44:00.895Z,97379.25
2019-03-15T05:46:31.503Z,97379.94
2019-03-15T05:49:02.107Z,97381.73
2019-03-15T05:51:32.755Z,97383.64
2019-03-15T05:54:03.329Z,97380.92
2019-03-15T05:56:33.972Z,97381.84
2019-03-15T05:59:04.540Z,97385.27
2019-03-15T06:01:35.144Z,97377.09
2019-03-15T06:04:05.742Z,97376.48
2019-03-15T06:06:36.373Z,97372.39
2019-03-15T06:09:07.736Z,97365.59
2019-03-15T06:11:38.334Z,97354.52
2019-03-15T06:14:08.969Z,97356.25
2019-03-15T06:16:39.609Z,97358.23
2019-03-15T06:19:13.107Z,97364.86
2019-03-15T06:21:43.706Z,97369.38
2019-03-15T06:24:14.234Z,97362.21
2019-03-15T06:26:44.826Z,97366.41
2019-03-15T06:29:15.395Z,97363.47
2019-03-15T06:31:46.043Z,97355.95
2019-03-15T06:34:16.640Z,97358.60
2019-03-15T06:36:48.299Z,97351.08
2019-03-15T06:39:18.943Z,97347.98
2019-03-15T06:41:49.578Z,97339.98
2019-03-15T06:44:20.106Z,97329.58
2019-03-15T06:46:50.676Z,97344.20
2019-03-15T06:49:21.373Z,97334.73
2019-03-15T06:51:52.062Z,97334.07
2019-03-15T06:54:22.649Z,97335.66
2019-03-15T06:56:53.263Z,97341.01
2019-03-15T06:59:23.876Z,97333.81
2019-03-15T07:01:54.437Z,97329.05
2019-03-15T07:04:25.035Z,97334.37
2019-03-15T07:06:55.674Z,97330.03
2019-03-15T07:09:26.212Z,97328.36
2019-03-15T07:12:08.833Z,97316.48
2019-03-15T07:14:32.508Z,97317.95
2019-03-15T07:17:03.214Z,97313.70
2019-03-15T07:19:33.765Z,97322.44
2019-03-15T07:22:04.361Z,97315.73
2019-03-15T07:24:34.907Z,97302.87
2019-03-15T07:27:12.746Z,97304.17
2019-03-15T07:29:39.897Z,97301.25
2019-03-15T07:32:10.481Z,97293.50
2019-03-15T07:34:41.610Z,97286.13
2019-03-15T07:37:12.387Z,97298.50
2019-03-15T07:39:42.932Z,97293.88
2019-03-15T07:42:13.637Z,97292.80
2019-03-15T07:44:44.172Z,97286.93
2019-03-15T07:47:15.178Z,97285.42
2019-03-15T07:49:45.720Z,97285.63
2019-03-15T07:52:17.091Z,97286.66
2019-03-15T07:54:47.645Z,97286.59
2019-03-15T07:57:18.233Z,97286.92
2019-03-15T07:59:49.910Z,97288.13
2019-03-15T08:02:22.313Z,97278.34
2019-03-15T08:04:52.914Z,97278.77
2019-03-15T08:07:35.483Z,97278.39
2019-03-15T08:09:55.799Z,97282.83
2019-03-15T08:12:26.427Z,97274.64
2019-03-15T08:14:57.023Z,97264.64
2019-03-15T08:17:27.628Z,97264.69
2019-03-15T08:19:58.218Z,97260.91
2019-03-15T08:22:28.819Z,97263.09
2019-03-15T08:24:59.437Z,97268.91
2019-03-15T08:27:30.021Z,97263.02
2019-03-15T08:30:00.605Z,97257.42
2019-03-15T08:32:31.193Z,97262.03
2019-03-15T08:35:04.168Z,97260.97
2019-03-15T08:37:35.019Z,97264.41
2019-03-15T08:40:06.267Z,97256.20
2019-03-15T08:42:36.992Z,97260.12
2019-03-15T08:45:11.016Z,97263.24
2019-03-15T08:47:41.689Z,97255.34
2019-03-15T08:50:15.501Z,97253.58
2019-03-15T08:52:46.392Z,97251.80
2019-03-15T08:55:16.982Z,97257.84
2019-03-15T08:57:47.593Z,97257.27
2019-03-15T09:00:18.661Z,97259.26
2019-03-15T09:02:49.320Z,97255.49
2019-03-15T09:05:19.886Z,97256.10
2019-03-15T09:07:50.544Z,97251.93
2019-03-15T09:10:23.792Z,97250.14
2019-03-15T09:12:53.460Z,97264.81
2019-03-15T09:15:25.833Z,97256.67
2019-03-15T09:17:57.684Z,97259.59
2019-03-15T09:20:30.449Z,97252.66
2019-03-15T09:23:00.670Z,97261.01
2019-03-15T09:25:31.254Z,97260.49
2019-03-15T09:28:01.874Z,97260.48
2019-03-15T09:30:32.420Z,97270.45
2019-03-15T09:33:03.694Z,97267.20
2019-03-15T09:35:34.287Z,97260.78
2019-03-15T09:38:04.961Z,97272.21
2019-03-15T09:40:35.510Z,97263.05
2019-03-15T09:43:06.165Z,97281.02
2019-03-15T09:45:36.829Z,97273.57
2019-03-15T09:48:07.464Z,97259.36
2019-03-15T09:50:50.517Z,97268.91
2019-03-15T09:53:10.452Z,97275.55
2019-03-15T09:55:41.033Z,97269.49
2019-03-15T09:58:11.681Z,97274.30
2019-03-15T10:00:45.488Z,97277.50
2019-03-15T10:03:22.083Z,97284.43
2019-03-15T10:05:48.436Z,97268.70
2019-03-15T10:08:19.089Z,97260.74
2019-03-15T10:10:49.628Z,97280.25
2019-03-15T10:13:20.253Z,97262.71
2019-03-15T10:15:50.870Z,97273.56
2019-03-15T10:18:21.902Z,97273.36
2019-03-15T10:20:52.462Z,97275.33
2019-03-15T10:23:23.062Z,97277.56
2019-03-15T10:25:53.655Z,97269.59
2019-03-15T10:28:24.287Z,97270.67
2019-03-15T10:30:54.920Z,97278.67
2019-03-15T10:33:26.745Z,97284.83
2019-03-15T10:35:57.339Z,97285.06
2019-03-15T10:38:27.951Z,97287.28
2019-03-15T10:41:01.145Z,97296.52
2019-03-15T10:43:30.932Z,97288.83
2019-03-15T10:46:01.530Z,97291.24
2019-03-15T10:48:32.207Z,97293.31
2019-03-15T10:51:02.753Z,97300.56
2019-03-15T10:53:33.407Z,97289.81
2019-03-15T10:56:04.029Z,97291.27
2019-03-15T10:58:34.649Z,97288.15
2019-03-15T11:01:05.676Z,97300.28
2019-03-15T11:03:36.298Z,97307.33
2019-03-15T11:06:06.873Z,97304.09
2019-03-15T11:08:37.490Z,97303.44
2019-03-15T11:11:08.056Z,97310.09
2019-03-15T11:13:38.720Z,97322.80
2019-03-15T11:16:09.305Z,97314.14
2019-03-15T11:18:39.966Z,97316.25
2019-03-15T11:21:10.517Z,97305.55
2019-03-15T11:23:41.097Z,97309.66
2019-03-15T11:26:14.000Z,97304.53
2019-03-15T11:28:44.066Z,97311.37
2019-03-15T11:31:14.628Z,97324.17
2019-03-15T11:33:47.362Z,97299.44
2019-03-15T11:36:17.578Z,97316.62
2019-03-15T11:38:48.255Z,97312.69
2019-03-15T11:41:18.842Z,97321.43
2019-03-15T11:43:49.510Z,97332.41
2019-03-15T11:46:20.037Z,97324.93
2019-03-15T11:48:50.717Z,97323.02
2019-03-15T11:51:22.784Z,97337.80
2019-03-15T11:53:53.456Z,97346.77
2019-03-15T11:56:27.212Z,97352.44
2019-03-15T11:58:56.445Z,97349.01
2019-03-15T12:01:27.029Z,97354.98
2019-03-15T12:03:57.647Z,97351.93
2019-03-15T12:06:29.386Z,97352.44
2019-03-15T12:09:01.393Z,97355.05
2019-03-15T12:11:31.986Z,97363.59
2019-03-15T12:14:02.663Z,97369.03
2019-03-15T12:16:33.225Z,97364.80
2019-03-15T12:19:08.119Z,97372.84
2019-03-15T12:21:38.735Z,97366.67
2019-03-15T12:24:09.389Z,97365.31
2019-03-15T12:26:40.818Z,97387.59
2019-03-15T12:29:11.776Z,97379.10
2019-03-15T12:31:44.623Z,97396.41
2019-03-15T12:34:15.292Z,97389.20
2019-03-15T12:36:45.849Z,97399.04
2019-03-15T12:39:16.466Z,97395.49
2019-03-15T12:41:47.118Z,97394.14
2019-03-15T12:44:17.743Z,97392.33
2019-03-15T12:46:48.344Z,97391.82
2019-03-15T12:49:18.988Z,97395.02
2019-03-15T12:51:49.606Z,97395.95
2019-03-15T12:54:20.194Z,97396.50
2019-03-15T12:56:53.916Z,97399.04
2019-03-15T12:59:23.056Z,97405.36
2019-03-15T13:01:55.211Z,97403.27
2019-03-15T13:04:28.742Z,97398.31
2019-03-15T13:06:59.273Z,97400.66
2019-03-15T13:09:29.908Z,97393.25
2019-03-15T13:12:01.933Z,97396.88
2019-03-15T13:14:33.717Z,97397.26
2019-03-15T13:17:04.286Z,97389.28
2019-03-15T13:19:34.962Z,97387.16
2019-03-15T13:22:05.575Z,97392.70
2019-03-15T13:24:36.233Z,97393.36
2019-03-15T13:27:07.894Z,97388.22
2019-03-15T13:29:38.844Z,97382.55
2019-03-15T13:32:12.691Z,97397.27
2019-03-15T13:34:43.359Z,97386.48
2019-03-15T13:37:13.937Z,97388.38
2019-03-15T13:39:44.545Z,97384.69
2019-03-15T13:42:15.181Z,97385.24
2019-03-15T13:44:45.797Z,97390.69
2019-03-15T13:47:16.422Z,97382.62
2019-03-15T13:49:50.171Z,97393.63
2019-03-15T13:52:21.021Z,97393.61
2019-03-15T13:54:51.616Z,97394.27
2019-03-15T13:57:22.169Z,97379.58
2019-03-15T13:59:52.807Z,97371.78
2019-03-15T14:02:23.463Z,97374.64
2019-03-15T14:04:54.081Z,97361.83
2019-03-15T14:07:24.699Z,97382.94
2019-03-15T14:09:55.385Z,97366.47
2019-03-15T14:12:25.994Z,97361.34
2019-03-15T14:14:56.618Z,97367.59
2019-03-15T14:17:29.818Z,97376.13
2019-03-15T14:20:00.542Z,97379.36
2019-03-15T14:22:31.186Z,97379.66
2019-03-15T14:25:01.834Z,97385.79
2019-03-15T14:27:37.383Z,97375.94
2019-03-15T14:30:04.813Z,97376.81
2019-03-15T14:32:35.444Z,97372.50
2019-03-15T14:35:06.161Z,97391.12
2019-03-15T14:37:36.878Z,97391.30
2019-03-15T14:40:07.813Z,97378.19
2019-03-15T14:42:40.354Z,97377.41
2019-03-15T14:45:11.640Z,97385.88
2019-03-15T14:47:42.287Z,97390.88
2019-03-15T14:50:14.907Z,97398.74
2019-03-15T14:52:47.160Z,97389.31
2019-03-15T14:55:17.852Z,97394.88
2019-03-15T14:57:53.166Z,97381.06
2019-03-15T15:00:20.797Z,97383.45
2019-03-15T15:02:51.421Z,97376.09
2019-03-15T15:05:22.073Z,97381.06
2019-03-15T15:07:52.665Z,97375.58
2019-03-15T15:10:23.295Z,97375.22
2019-03-15T15:12:53.977Z,97376.16
2019-03-15T15:15:24.610Z,97378.83
2019-03-15T15:17:55.218Z,97382.64
2019-03-15T15:20:25.862Z,97390.07
2019-03-15T15:22:56.420Z,97396.61
2019-03-15T15:25:27.105Z,97391.44
2019-03-15T15:28:04.381Z,97391.00
2019-03-15T15:30:30.111Z,97390.00
2019-03-15T15:33:00.661Z,97397.04
2019-03-15T15:35:31.289Z,97400.92
2019-03-15T15:38:01.871Z,97393.33
2019-03-15T15:40:32.540Z,97385.82
2019-03-15T15:43:04.542Z,97406.55
2019-03-15T15:45:35.196Z,97377.78
2019-03-15T15:48:05.879Z,97392.94
2019-03-15T15:50:36.488Z,97394.62
2019-03-15T15:53:07.135Z,97392.50
2019-03-15T15:55:37.703Z,97399.36
2019-03-15T15:58:17.963Z,97389.75
2019-03-15T16:00:43.499Z,97398.92
2019-03-15T16:03:21.961Z,97406.29
2019-03-15T16:05:52.615Z,97401.53
2019-03-15T16:08:23.209Z,97400.65
2019-03-15T16:10:53.942Z,97397.22
2019-03-15T16:13:24.537Z,97401.35
2019-03-15T16:15:55.236Z,97396.56
2019-03-15T16:18:26.951Z,97401.23
2019-03-15T16:20:58.542Z,97388.25
2019-03-15T16:23:30.486Z,97389.43
2019-03-15T16:26:01.514Z,97398.42
2019-03-15T16:28:36.142Z,97398.40
2019-03-15T16:31:06.617Z,97402.91
2019-03-15T16:33:37.246Z,97398.78
2019-03-15T16:36:07.917Z,97414.43
2019-03-15T16:38:38.537Z,97417.80
2019-03-15T16:41:09.233Z,97410.59
2019-03-15T16:43:39.813Z,97419.03
2019-03-15T16:46:10.437Z,97418.08
2019-03-15T16:48:42.364Z,97414.45
2019-03-15T16:51:19.437Z,97416.57
2019-03-15T16:53:45.381Z,97409.94
2019-03-15T16:56:16.062Z,97415.98
2019-03-15T16:58:46.647Z,97415.11
2019-03-15T17:01:18.928Z,97398.58
2019-03-15T17:03:50.606Z,97419.42
2019-03-15T17:06:22.864Z,97416.38
2019-03-15T17:08:55.979Z,97416.30
2019-03-15T17:11:26.726Z,97420.42
2019-03-15T17:13:57.385Z,97420.12
2019-03-15T17:16:28.170Z,97421.23
2019-03-15T17:18:58.861Z,97436.68
2019-03-15T17:21:29.443Z,97414.11
2019-03-15T17:24:00.093Z,97419.55
2019-03-15T17:26:30.765Z,97421.89
2019-03-15T17:29:01.427Z,97415.92
2019-03-15T17:31:32.102Z,97417.55
2019-03-15T17:34:09.852Z,97417.05
2019-03-15T17:36:40.540Z,97430.64
2019-03-15T17:39:11.098Z,97430.94
2019-03-15T17:41:41.748Z,97422.78
2019-03-15T17:44:12.386Z,97426.71
2019-03-15T17:46:42.977Z,97418.08
2019-03-15T17:49:13.607Z,97406.88
2019-03-15T17:51:44.184Z,97414.62
2019-03-15T17:54:14.879Z,97410.69
2019-03-15T17:56:45.573Z,97418.85
2019-03-15T17:59:16.122Z,97406.45
2019-03-15T18:01:48.916Z,97415.23
2019-03-15T18:04:19.549Z,97430.41
2019-03-15T18:06:50.207Z,97423.70
2019-03-15T18:09:24.986Z,97427.94
2019-03-15T18:11:58.385Z,97425.09
2019-03-15T18:14:29.097Z,97436.30
2019-03-15T18:16:59.659Z,97441.03
2019-03-15T18:19:30.300Z,97440.30
2019-03-15T18:22:00.871Z,97449.47
2019-03-15T18:24:31.531Z,97445.12
2019-03-15T18:27:02.306Z,97451.89
2019-03-15T18:29:32.998Z,97439.07
2019-03-15T18:32:06.100Z,97436.95
2019-03-15T18:34:37.776Z,97450.97
2019-03-15T18:37:12.539Z,97455.94
2019-03-15T18:39:43.185Z,97454.41
2019-03-15T18:42:13.834Z,97455.20
2019-03-15T18:44:44.478Z,97458.14
2019-03-15T18:47:15.046Z,97461.45
2019-03-15T18:49:45.963Z,97477.98
2019-03-15T18:52:16.591Z,97452.70
2019-03-15T18:54:47.242Z,97457.52
2019-03-15T18:57:17.762Z,97456.52
2019-03-15T18:59:48.434Z,97461.88
2019-03-15T19:02:19.034Z,97464.07
2019-03-15T19:04:49.647Z,97463.57
2019-03-15T19:07:20.443Z,97466.41
2019-03-15T19:09:51.768Z,97470.14
2019-03-15T19:12:25.530Z,97478.81
2019-03-15T19:14:56.137Z,97481.93
2019-03-15T19:17:26.788Z,97482.02
2019-03-15T19:19:57.485Z,97487.78
2019-03-15T19:22:28.082Z,97489.67
2019-03-15T19:24:59.394Z,97491.30
2019-03-15T19:27:29.993Z,97502.19
2019-03-15T19:30:00.659Z,97501.27
2019-03-15T19:32:33.540Z,97496.34
2019-03-15T19:35:04.275Z,97509.42
2019-03-15T19:37:34.873Z,97502.58
2019-03-15T19:40:05.934Z,97511.55
2019-03-15T19:42:37.530Z,97509.02
2019-03-15T19:45:10.404Z,97512.94
2019-03-15T19:47:44.114Z,97517.17
2019-03-15T19:50:15.843Z,97520.52
2019-03-15T19:52:46.524Z,97519.59
2019-03-15T19:55:18.204Z,97529.67
2019-03-15T19:57:48.796Z,97530.48
2019-03-15T20:00:19.178Z,97540.95
2019-03-15T20:02:49.895Z,97543.97
2019-03-15T20:05:24.461Z,97555.98
2019-03-15T20:07:55.058Z,97551.44
2019-03-15T20:10:28.183Z,97542.69
2019-03-15T20:13:02.355Z,97534.52
2019-03-15T20:15:33.567Z,97543.80
2019-03-15T20:18:04.924Z,97537.45
2019-03-15T20:20:35.599Z,97543.09
2019-03-15T20:23:09.288Z,97556.91
2019-03-15T20:25:40.033Z,97555.69
2019-03-15T20:28:10.742Z,97550.76
2019-03-15T20:30:51.377Z,97567.47
2019-03-15T20:33:15.029Z,97562.02
2019-03-15T20:35:51.931Z,97576.23
2019-03-15T20:38:21.955Z,97577.63
2019-03-15T20:40:59.726Z,97576.02
2019-03-15T20:43:33.501Z,97595.17
2019-03-15T20:46:11.335Z,97603.83
2019-03-15T20:48:41.977Z,97598.81
2019-03-15T20:51:12.663Z,97607.03
2019-03-15T20:53:43.930Z,97601.52
2019-03-15T20:56:15.582Z,97603.42
2019-03-15T20:58:46.256Z,97610.69
2019-03-15T21:01:16.928Z,97615.30
2019-03-15T21:03:56.006Z,97616.52
2019-03-15T21:06:20.070Z,97622.16
2019-03-15T21:08:50.695Z,97620.84
2019-03-15T21:11:21.605Z,97626.80
2019-03-15T21:13:52.269Z,97619.14
2019-03-15T21:16:25.317Z,97629.42
2019-03-15T21:18:55.891Z,97632.23
2019-03-15T21:21:26.519Z,97632.45
2019-03-15T21:23:57.118Z,97638.99
2019-03-15T21:26:30.767Z,97638.87
2019-03-15T21:29:01.579Z,97632.05
2019-03-15T21:31:32.296Z,97627.09
2019-03-15T21:34:02.846Z,97633.23
2019-03-15T21:36:33.511Z,97641.70
2019-03-15T21:39:07.855Z,97646.13
2019-03-15T21:41:38.493Z,97638.47
2019-03-15T21:44:09.065Z,97653.36
2019-03-15T21:46:39.691Z,97636.47
2019-03-15T21:49:11.955Z,97645.91
2019-03-15T21:51:44.076Z,97646.04
2019-03-15T21:54:14.624Z,97651.86
2019-03-15T21:56:45.252Z,97649.25
2019-03-15T21:59:15.867Z,97651.86
2019-03-15T22:01:46.547Z,97656.60
2019-03-15T22:04:17.104Z,97654.17
2019-03-15T22:06:48.580Z,97661.74
2019-03-15T22:09:19.191Z,97654.67
2019-03-15T22:11:49.827Z,97664.14
2019-03-15T22:14:20.384Z,97656.20
2019-03-15T22:16:51.026Z,97677.73
2019-03-15T22:19:21.604Z,97660.22
2019-03-15T22:21:52.258Z,97671.50
2019-03-15T22:24:22.872Z,97661.74
2019-03-15T22:26:53.505Z,97673.21
2019-03-15T22:29:24.095Z,97678.05
2019-03-15T22:31:54.670Z,97672.90
2019-03-15T22:34:25.276Z,97674.83
2019-03-15T22:36:55.920Z,97669.88
2019-03-15T22:39:26.504Z,97677.73
2019-03-15T22:41:57.306Z,97680.34
2019-03-15T22:44:27.912Z,97684.67
2019-03-15T22:46:58.598Z,97678.45
2019-03-15T22:49:29.175Z,97690.01
2019-03-15T22:51:59.893Z,97685.30
2019-03-15T22:54:30.422Z,97680.84
2019-03-15T22:57:01.052Z,97676.33
2019-03-15T22:59:31.660Z,97687.92
2019-03-15T23:02:03.253Z,97677.73
2019-03-15T23:04:33.800Z,97686.61
2019-03-15T23:07:04.434Z,97690.31
2019-03-15T23:09:35.055Z,97693.94
2019-03-15T23:12:05.757Z,97687.39
2019-03-15T23:14:36.288Z,97693.44
2019-03-15T23:17:06.896Z,97693.44
2019-03-15T23:19:37.505Z,97688.11
2019-03-15T23:22:08.196Z,97689.91
2019-03-15T23:24:38.800Z,97702.00
2019-03-15T23:27:09.364Z,97697.17
2019-03-15T23:29:39.951Z,97705.11
2019-03-15T23:32:10.566Z,97704.12
2019-03-15T23:34:41.136Z,97701.78
2019-03-15T23:37:12.711Z,97695.86
2019-03-15T23:39:43.288Z,97694.95
2019-03-15T23:42:13.884Z,97688.01
2019-03-15T23:44:44.424Z,97687.79
2019-03-15T23:47:15.057Z,97693.13
2019-03-15T23:49:45.635Z,97689.19
2019-03-15T23:52:16.268Z,97696.64
2019-03-15T23:54:48.623Z,97690.22
2019-03-15T23:57:19.128Z,97696.34
2019-03-15T23:59:55.604Z,97699.66
